Terminal Aerodrome Forecast
Issued by NWS Tulsa, OK

Home | Current Version | Previous Version | Text Only | Print | Product List | Glossary On
Versions: 1 2 3 4 5 6 7 8 9 10 11 12 13 14 15 16 17 18 19 20 21 22 23 24 25 26
000
FTUS44 KTSA 240200 AAC
TAFTUL
TAF AMD
KTUL 240203Z 2402/2424 14011KT 2SM -TSRA SCT015 BKN040CB OVC110
      TEMPO 2402/2406 1SM TSRA BKN012CB
     FM240600 17007KT 4SM TSRA OVC015CB
      TEMPO 2406/2410 1SM TSRA BKN008CB
     FM241200 17010KT 3SM -RA OVC012
     FM241900 19010KT 3SM -TSRA OVC015CB=

USA.gov is the U.S. government's official web portal to all federal, state and local government web resources and services.